sensor_id;sensor_type;location;lat;lon;timestamp;P1;durP1;ratioP1;P2;durP2;ratioP2
21492;SDS011;10908;50.690;4.400;2024-03-08T00:00:34;28.73;;;14.60;;
21492;SDS011;10908;50.690;4.400;2024-03-08T00:02:59;32.80;;;14.68;;
21492;SDS011;10908;50.690;4.400;2024-03-08T00:05:28;30.23;;;14.77;;
21492;SDS011;10908;50.690;4.400;2024-03-08T00:07:53;27.10;;;13.00;;
21492;SDS011;10908;50.690;4.400;2024-03-08T00:10:19;28.50;;;13.70;;
21492;SDS011;10908;50.690;4.400;2024-03-08T00:12:46;29.13;;;14.43;;
21492;SDS011;10908;50.690;4.400;2024-03-08T00:15:15;30.63;;;13.88;;
21492;SDS011;10908;50.690;4.400;2024-03-08T00:17:42;28.60;;;14.15;;
21492;SDS011;10908;50.690;4.400;2024-03-08T00:20:08;30.23;;;14.70;;
21492;SDS011;10908;50.690;4.400;2024-03-08T00:22:34;33.13;;;14.68;;
21492;SDS011;10908;50.690;4.400;2024-03-08T00:25:01;31.27;;;14.25;;
21492;SDS011;10908;50.690;4.400;2024-03-08T00:27:27;30.95;;;14.63;;
21492;SDS011;10908;50.690;4.400;2024-03-08T00:29:55;32.15;;;14.98;;
21492;SDS011;10908;50.690;4.400;2024-03-08T00:32:21;30.83;;;14.15;;
21492;SDS011;10908;50.690;4.400;2024-03-08T00:34:49;31.27;;;14.45;;
21492;SDS011;10908;50.690;4.400;2024-03-08T00:37:17;28.48;;;13.93;;
21492;SDS011;10908;50.690;4.400;2024-03-08T00:39:43;29.02;;;13.98;;
21492;SDS011;10908;50.690;4.400;2024-03-08T00:42:08;35.50;;;14.52;;
21492;SDS011;10908;50.690;4.400;2024-03-08T00:44:34;29.38;;;14.52;;
21492;SDS011;10908;50.690;4.400;2024-03-08T00:47:00;29.92;;;14.50;;
21492;SDS011;10908;50.690;4.400;2024-03-08T00:49:25;31.33;;;14.50;;
21492;SDS011;10908;50.690;4.400;2024-03-08T00:51:51;33.05;;;14.90;;
21492;SDS011;10908;50.690;4.400;2024-03-08T00:54:16;28.67;;;14.23;;
21492;SDS011;10908;50.690;4.400;2024-03-08T00:56:42;33.42;;;15.30;;
21492;SDS011;10908;50.690;4.400;2024-03-08T00:59:08;31.25;;;14.30;;
21492;SDS011;10908;50.690;4.400;2024-03-08T01:01:33;34.03;;;15.32;;
21492;SDS011;10908;50.690;4.400;2024-03-08T01:03:59;33.25;;;15.32;;
21492;SDS011;10908;50.690;4.400;2024-03-08T01:06:25;30.88;;;14.65;;
21492;SDS011;10908;50.690;4.400;2024-03-08T01:08:52;31.90;;;14.70;;
21492;SDS011;10908;50.690;4.400;2024-03-08T01:11:17;32.95;;;15.25;;
21492;SDS011;10908;50.690;4.400;2024-03-08T01:13:44;33.80;;;15.57;;
21492;SDS011;10908;50.690;4.400;2024-03-08T01:16:12;31.98;;;15.93;;
21492;SDS011;10908;50.690;4.400;2024-03-08T01:18:38;30.13;;;14.98;;
21492;SDS011;10908;50.690;4.400;2024-03-08T01:21:04;35.05;;;15.07;;
21492;SDS011;10908;50.690;4.400;2024-03-08T01:23:29;31.70;;;15.80;;
21492;SDS011;10908;50.690;4.400;2024-03-08T01:25:55;31.40;;;15.02;;
21492;SDS011;10908;50.690;4.400;2024-03-08T01:28:24;33.78;;;14.90;;
21492;SDS011;10908;50.690;4.400;2024-03-08T01:30:50;34.70;;;15.05;;
21492;SDS011;10908;50.690;4.400;2024-03-08T01:33:29;31.52;;;15.38;;
21492;SDS011;10908;50.690;4.400;2024-03-08T01:35:56;32.97;;;15.40;;
21492;SDS011;10908;50.690;4.400;2024-03-08T01:38:23;29.38;;;14.55;;
21492;SDS011;10908;50.690;4.400;2024-03-08T01:40:49;31.85;;;16.00;;
21492;SDS011;10908;50.690;4.400;2024-03-08T01:43:19;34.60;;;16.23;;
21492;SDS011;10908;50.690;4.400;2024-03-08T01:45:44;32.55;;;15.05;;
21492;SDS011;10908;50.690;4.400;2024-03-08T01:48:10;31.35;;;15.95;;
21492;SDS011;10908;50.690;4.400;2024-03-08T01:50:37;32.97;;;16.40;;
21492;SDS011;10908;50.690;4.400;2024-03-08T01:53:04;34.70;;;16.73;;
21492;SDS011;10908;50.690;4.400;2024-03-08T01:55:30;36.33;;;15.73;;
21492;SDS011;10908;50.690;4.400;2024-03-08T01:57:56;33.92;;;17.25;;
21492;SDS011;10908;50.690;4.400;2024-03-08T02:00:23;35.13;;;16.48;;
21492;SDS011;10908;50.690;4.400;2024-03-08T02:02:51;34.33;;;15.95;;
21492;SDS011;10908;50.690;4.400;2024-03-08T02:05:19;31.63;;;15.80;;
21492;SDS011;10908;50.690;4.400;2024-03-08T02:07:46;32.97;;;16.40;;
21492;SDS011;10908;50.690;4.400;2024-03-08T02:10:12;30.92;;;15.25;;
21492;SDS011;10908;50.690;4.400;2024-03-08T02:12:38;36.40;;;16.88;;
21492;SDS011;10908;50.690;4.400;2024-03-08T02:15:04;32.30;;;15.90;;
21492;SDS011;10908;50.690;4.400;2024-03-08T02:17:31;33.83;;;15.98;;
21492;SDS011;10908;50.690;4.400;2024-03-08T02:19:58;32.42;;;16.13;;
21492;SDS011;10908;50.690;4.400;2024-03-08T02:22:27;34.88;;;16.67;;
21492;SDS011;10908;50.690;4.400;2024-03-08T02:24:58;34.67;;;17.02;;
21492;SDS011;10908;50.690;4.400;2024-03-08T02:27:26;35.20;;;16.00;;
21492;SDS011;10908;50.690;4.400;2024-03-08T02:29:56;34.60;;;17.02;;
21492;SDS011;10908;50.690;4.400;2024-03-08T02:32:22;33.78;;;17.02;;
21492;SDS011;10908;50.690;4.400;2024-03-08T02:34:48;31.23;;;15.95;;
21492;SDS011;10908;50.690;4.400;2024-03-08T02:37:15;32.35;;;16.90;;
21492;SDS011;10908;50.690;4.400;2024-03-08T02:39:41;35.22;;;17.50;;
21492;SDS011;10908;50.690;4.400;2024-03-08T02:42:07;35.05;;;17.50;;
21492;SDS011;10908;50.690;4.400;2024-03-08T02:44:32;31.05;;;17.00;;
21492;SDS011;10908;50.690;4.400;2024-03-08T02:46:58;32.78;;;17.98;;
21492;SDS011;10908;50.690;4.400;2024-03-08T02:49:25;35.20;;;17.77;;
21492;SDS011;10908;50.690;4.400;2024-03-08T02:51:53;36.85;;;17.75;;
21492;SDS011;10908;50.690;4.400;2024-03-08T02:54:22;32.55;;;17.83;;
21492;SDS011;10908;50.690;4.400;2024-03-08T02:56:49;35.90;;;17.92;;
21492;SDS011;10908;50.690;4.400;2024-03-08T02:59:17;33.75;;;18.02;;
21492;SDS011;10908;50.690;4.400;2024-03-08T03:01:43;32.50;;;17.83;;
21492;SDS011;10908;50.690;4.400;2024-03-08T03:04:09;37.75;;;18.70;;
21492;SDS011;10908;50.690;4.400;2024-03-08T03:06:35;33.60;;;18.10;;
21492;SDS011;10908;50.690;4.400;2024-03-08T03:09:01;34.50;;;17.85;;
21492;SDS011;10908;50.690;4.400;2024-03-08T03:11:27;36.60;;;19.25;;
21492;SDS011;10908;50.690;4.400;2024-03-08T03:13:52;38.45;;;19.88;;
21492;SDS011;10908;50.690;4.400;2024-03-08T03:16:18;37.13;;;19.30;;
21492;SDS011;10908;50.690;4.400;2024-03-08T03:18:45;38.65;;;20.10;;
21492;SDS011;10908;50.690;4.400;2024-03-08T03:21:11;36.95;;;19.80;;
21492;SDS011;10908;50.690;4.400;2024-03-08T03:23:38;36.33;;;19.08;;
21492;SDS011;10908;50.690;4.400;2024-03-08T03:26:05;38.13;;;19.80;;
21492;SDS011;10908;50.690;4.400;2024-03-08T03:28:37;36.33;;;18.98;;
21492;SDS011;10908;50.690;4.400;2024-03-08T03:31:05;37.58;;;19.92;;
21492;SDS011;10908;50.690;4.400;2024-03-08T03:33:39;33.50;;;18.75;;
21492;SDS011;10908;50.690;4.400;2024-03-08T03:36:05;36.55;;;20.30;;
21492;SDS011;10908;50.690;4.400;2024-03-08T03:38:31;41.22;;;20.35;;
21492;SDS011;10908;50.690;4.400;2024-03-08T03:40:56;39.50;;;20.30;;
21492;SDS011;10908;50.690;4.400;2024-03-08T03:43:29;36.40;;;19.73;;
21492;SDS011;10908;50.690;4.400;2024-03-08T03:45:54;40.85;;;20.50;;
21492;SDS011;10908;50.690;4.400;2024-03-08T03:48:20;40.97;;;20.35;;
21492;SDS011;10908;50.690;4.400;2024-03-08T03:50:46;42.85;;;21.60;;
21492;SDS011;10908;50.690;4.400;2024-03-08T03:53:12;36.95;;;19.50;;
21492;SDS011;10908;50.690;4.400;2024-03-08T03:55:38;40.53;;;21.08;;
21492;SDS011;10908;50.690;4.400;2024-03-08T03:58:04;38.58;;;20.77;;
21492;SDS011;10908;50.690;4.400;2024-03-08T04:00:29;38.00;;;20.65;;
21492;SDS011;10908;50.690;4.400;2024-03-08T04:02:55;40.67;;;21.45;;
21492;SDS011;10908;50.690;4.400;2024-03-08T04:05:24;39.33;;;21.13;;
21492;SDS011;10908;50.690;4.400;2024-03-08T04:07:49;39.80;;;20.95;;
21492;SDS011;10908;50.690;4.400;2024-03-08T04:10:15;45.17;;;21.15;;
21492;SDS011;10908;50.690;4.400;2024-03-08T04:12:41;38.58;;;21.67;;
21492;SDS011;10908;50.690;4.400;2024-03-08T04:15:07;40.05;;;21.45;;
21492;SDS011;10908;50.690;4.400;2024-03-08T04:17:33;38.22;;;21.05;;
21492;SDS011;10908;50.690;4.400;2024-03-08T04:20:05;36.85;;;20.60;;
21492;SDS011;10908;50.690;4.400;2024-03-08T04:22:40;37.10;;;20.67;;
21492;SDS011;10908;50.690;4.400;2024-03-08T04:25:06;39.40;;;21.30;;
21492;SDS011;10908;50.690;4.400;2024-03-08T04:27:32;40.22;;;22.23;;
21492;SDS011;10908;50.690;4.400;2024-03-08T04:29:59;40.90;;;22.13;;
21492;SDS011;10908;50.690;4.400;2024-03-08T04:32:25;37.75;;;20.90;;
21492;SDS011;10908;50.690;4.400;2024-03-08T04:34:50;38.00;;;20.90;;
21492;SDS011;10908;50.690;4.400;2024-03-08T04:37:16;38.30;;;21.67;;
21492;SDS011;10908;50.690;4.400;2024-03-08T04:39:47;42.65;;;21.75;;
21492;SDS011;10908;50.690;4.400;2024-03-08T04:42:13;38.90;;;22.45;;
21492;SDS011;10908;50.690;4.400;2024-03-08T04:44:39;38.78;;;21.58;;
21492;SDS011;10908;50.690;4.400;2024-03-08T04:47:05;42.10;;;21.98;;
21492;SDS011;10908;50.690;4.400;2024-03-08T04:49:34;40.03;;;21.42;;
21492;SDS011;10908;50.690;4.400;2024-03-08T04:52:01;40.22;;;22.23;;
21492;SDS011;10908;50.690;4.400;2024-03-08T04:54:28;40.85;;;21.98;;
21492;SDS011;10908;50.690;4.400;2024-03-08T04:56:54;42.97;;;20.80;;
21492;SDS011;10908;50.690;4.400;2024-03-08T04:59:19;40.83;;;22.50;;
21492;SDS011;10908;50.690;4.400;2024-03-08T05:01:45;42.13;;;22.45;;
21492;SDS011;10908;50.690;4.400;2024-03-08T05:04:10;40.08;;;21.90;;
21492;SDS011;10908;50.690;4.400;2024-03-08T05:06:36;42.58;;;21.85;;
21492;SDS011;10908;50.690;4.400;2024-03-08T05:09:02;42.33;;;21.85;;
21492;SDS011;10908;50.690;4.400;2024-03-08T05:11:45;41.70;;;22.38;;
21492;SDS011;10908;50.690;4.400;2024-03-08T05:14:12;41.20;;;21.98;;
21492;SDS011;10908;50.690;4.400;2024-03-08T05:16:45;40.97;;;22.27;;
21492;SDS011;10908;50.690;4.400;2024-03-08T05:19:15;43.25;;;22.33;;
21492;SDS011;10908;50.690;4.400;2024-03-08T05:21:46;48.88;;;23.88;;
21492;SDS011;10908;50.690;4.400;2024-03-08T05:24:13;41.53;;;22.42;;
21492;SDS011;10908;50.690;4.400;2024-03-08T05:26:42;45.85;;;22.95;;
21492;SDS011;10908;50.690;4.400;2024-03-08T05:29:07;42.65;;;22.42;;
21492;SDS011;10908;50.690;4.400;2024-03-08T05:31:47;39.83;;;21.70;;
21492;SDS011;10908;50.690;4.400;2024-03-08T05:34:17;43.30;;;22.67;;
21492;SDS011;10908;50.690;4.400;2024-03-08T05:36:44;42.55;;;21.77;;
21492;SDS011;10908;50.690;4.400;2024-03-08T05:39:11;40.22;;;21.52;;
21492;SDS011;10908;50.690;4.400;2024-03-08T05:41:41;42.03;;;22.33;;
21492;SDS011;10908;50.690;4.400;2024-03-08T05:44:07;43.47;;;22.00;;
21492;SDS011;10908;50.690;4.400;2024-03-08T05:46:34;41.63;;;22.25;;
21492;SDS011;10908;50.690;4.400;2024-03-08T05:49:03;42.05;;;21.65;;
21492;SDS011;10908;50.690;4.400;2024-03-08T05:51:31;40.08;;;21.17;;
21492;SDS011;10908;50.690;4.400;2024-03-08T05:53:59;39.83;;;21.85;;
21492;SDS011;10908;50.690;4.400;2024-03-08T05:56:31;41.30;;;22.10;;
21492;SDS011;10908;50.690;4.400;2024-03-08T05:58:58;44.58;;;23.85;;
21492;SDS011;10908;50.690;4.400;2024-03-08T06:01:27;43.90;;;23.42;;
21492;SDS011;10908;50.690;4.400;2024-03-08T06:03:53;39.88;;;20.92;;
21492;SDS011;10908;50.690;4.400;2024-03-08T06:06:25;42.90;;;22.45;;
21492;SDS011;10908;50.690;4.400;2024-03-08T06:08:51;41.60;;;22.05;;
21492;SDS011;10908;50.690;4.400;2024-03-08T06:11:18;45.80;;;22.95;;
21492;SDS011;10908;50.690;4.400;2024-03-08T06:13:44;41.47;;;22.60;;
21492;SDS011;10908;50.690;4.400;2024-03-08T06:16:10;42.25;;;21.42;;
21492;SDS011;10908;50.690;4.400;2024-03-08T06:18:36;43.17;;;22.30;;
21492;SDS011;10908;50.690;4.400;2024-03-08T06:21:03;42.92;;;22.52;;
21492;SDS011;10908;50.690;4.400;2024-03-08T06:23:30;44.50;;;22.27;;
21492;SDS011;10908;50.690;4.400;2024-03-08T06:26:02;43.15;;;21.98;;
21492;SDS011;10908;50.690;4.400;2024-03-08T06:28:28;41.60;;;21.30;;
21492;SDS011;10908;50.690;4.400;2024-03-08T06:30:54;43.72;;;22.23;;
21492;SDS011;10908;50.690;4.400;2024-03-08T06:33:19;42.80;;;22.08;;
21492;SDS011;10908;50.690;4.400;2024-03-08T06:35:45;41.83;;;22.10;;
21492;SDS011;10908;50.690;4.400;2024-03-08T06:38:11;44.90;;;22.85;;
21492;SDS011;10908;50.690;4.400;2024-03-08T06:40:36;42.03;;;21.23;;
21492;SDS011;10908;50.690;4.400;2024-03-08T06:43:02;41.13;;;22.25;;
21492;SDS011;10908;50.690;4.400;2024-03-08T06:45:31;41.75;;;22.17;;
21492;SDS011;10908;50.690;4.400;2024-03-08T06:47:57;43.55;;;21.45;;
21492;SDS011;10908;50.690;4.400;2024-03-08T06:50:22;44.80;;;22.80;;
21492;SDS011;10908;50.690;4.400;2024-03-08T06:52:48;42.47;;;22.50;;
21492;SDS011;10908;50.690;4.400;2024-03-08T06:55:18;42.95;;;21.55;;
21492;SDS011;10908;50.690;4.400;2024-03-08T06:57:45;39.83;;;21.73;;
21492;SDS011;10908;50.690;4.400;2024-03-08T07:00:10;40.33;;;21.10;;
21492;SDS011;10908;50.690;4.400;2024-03-08T07:02:38;42.67;;;22.50;;
21492;SDS011;10908;50.690;4.400;2024-03-08T07:05:07;39.83;;;20.73;;
21492;SDS011;10908;50.690;4.400;2024-03-08T07:07:35;40.10;;;20.55;;
21492;SDS011;10908;50.690;4.400;2024-03-08T07:10:01;41.90;;;21.85;;
21492;SDS011;10908;50.690;4.400;2024-03-08T07:12:26;42.63;;;22.27;;
21492;SDS011;10908;50.690;4.400;2024-03-08T07:14:52;38.78;;;20.55;;
21492;SDS011;10908;50.690;4.400;2024-03-08T07:17:18;43.50;;;22.80;;
21492;SDS011;10908;50.690;4.400;2024-03-08T07:19:43;41.38;;;21.10;;
21492;SDS011;10908;50.690;4.400;2024-03-08T07:22:10;43.17;;;22.00;;
21492;SDS011;10908;50.690;4.400;2024-03-08T07:24:36;38.35;;;20.50;;
21492;SDS011;10908;50.690;4.400;2024-03-08T07:27:02;39.38;;;20.50;;
21492;SDS011;10908;50.690;4.400;2024-03-08T07:29:30;41.70;;;20.65;;
21492;SDS011;10908;50.690;4.400;2024-03-08T07:31:56;37.97;;;20.17;;
21492;SDS011;10908;50.690;4.400;2024-03-08T07:34:44;41.28;;;20.80;;
21492;SDS011;10908;50.690;4.400;2024-03-08T07:37:10;38.13;;;20.92;;
21492;SDS011;10908;50.690;4.400;2024-03-08T07:39:36;39.28;;;20.55;;
21492;SDS011;10908;50.690;4.400;2024-03-08T07:42:03;39.85;;;20.48;;
21492;SDS011;10908;50.690;4.400;2024-03-08T07:44:29;37.28;;;19.30;;
21492;SDS011;10908;50.690;4.400;2024-03-08T07:46:56;37.15;;;20.25;;
21492;SDS011;10908;50.690;4.400;2024-03-08T07:49:22;38.17;;;19.40;;
21492;SDS011;10908;50.690;4.400;2024-03-08T07:51:47;39.30;;;20.00;;
21492;SDS011;10908;50.690;4.400;2024-03-08T07:54:14;36.65;;;19.58;;
21492;SDS011;10908;50.690;4.400;2024-03-08T07:56:40;34.85;;;18.88;;
21492;SDS011;10908;50.690;4.400;2024-03-08T07:59:05;41.92;;;20.35;;
21492;SDS011;10908;50.690;4.400;2024-03-08T08:01:31;40.65;;;19.95;;
21492;SDS011;10908;50.690;4.400;2024-03-08T08:03:58;41.47;;;19.45;;
21492;SDS011;10908;50.690;4.400;2024-03-08T08:06:26;37.47;;;19.52;;
21492;SDS011;10908;50.690;4.400;2024-03-08T08:08:52;34.75;;;19.63;;
21492;SDS011;10908;50.690;4.400;2024-03-08T08:11:18;38.13;;;19.60;;
21492;SDS011;10908;50.690;4.400;2024-03-08T08:13:45;39.05;;;19.88;;
21492;SDS011;10908;50.690;4.400;2024-03-08T08:16:10;37.35;;;19.98;;
21492;SDS011;10908;50.690;4.400;2024-03-08T08:18:38;35.90;;;19.40;;
21492;SDS011;10908;50.690;4.400;2024-03-08T08:21:04;36.42;;;18.90;;
21492;SDS011;10908;50.690;4.400;2024-03-08T08:23:31;35.55;;;19.48;;
21492;SDS011;10908;50.690;4.400;2024-03-08T08:25:57;34.75;;;18.67;;
21492;SDS011;10908;50.690;4.400;2024-03-08T08:28:23;37.13;;;18.90;;
21492;SDS011;10908;50.690;4.400;2024-03-08T08:30:49;37.80;;;17.98;;
21492;SDS011;10908;50.690;4.400;2024-03-08T08:33:15;33.65;;;18.50;;
21492;SDS011;10908;50.690;4.400;2024-03-08T08:35:41;37.92;;;19.13;;
21492;SDS011;10908;50.690;4.400;2024-03-08T08:38:07;35.05;;;19.08;;
21492;SDS011;10908;50.690;4.400;2024-03-08T08:40:34;33.17;;;17.42;;
21492;SDS011;10908;50.690;4.400;2024-03-08T08:43:01;37.03;;;18.65;;
21492;SDS011;10908;50.690;4.400;2024-03-08T08:45:29;35.28;;;18.65;;
21492;SDS011;10908;50.690;4.400;2024-03-08T08:47:58;32.95;;;18.15;;
21492;SDS011;10908;50.690;4.400;2024-03-08T08:50:25;36.72;;;17.50;;
21492;SDS011;10908;50.690;4.400;2024-03-08T08:52:53;34.25;;;18.63;;
21492;SDS011;10908;50.690;4.400;2024-03-08T08:55:19;33.70;;;17.17;;
21492;SDS011;10908;50.690;4.400;2024-03-08T08:57:50;33.95;;;17.67;;
21492;SDS011;10908;50.690;4.400;2024-03-08T09:00:17;32.30;;;17.13;;
21492;SDS011;10908;50.690;4.400;2024-03-08T09:02:45;29.60;;;16.20;;
21492;SDS011;10908;50.690;4.400;2024-03-08T09:05:10;33.80;;;17.35;;
21492;SDS011;10908;50.690;4.400;2024-03-08T09:07:36;34.42;;;16.77;;
21492;SDS011;10908;50.690;4.400;2024-03-08T09:10:02;31.20;;;16.83;;
21492;SDS011;10908;50.690;4.400;2024-03-08T09:12:31;32.55;;;16.45;;
21492;SDS011;10908;50.690;4.400;2024-03-08T09:14:57;30.60;;;16.60;;
21492;SDS011;10908;50.690;4.400;2024-03-08T09:17:24;31.88;;;17.67;;
21492;SDS011;10908;50.690;4.400;2024-03-08T09:19:50;29.38;;;16.27;;
21492;SDS011;10908;50.690;4.400;2024-03-08T09:22:16;32.25;;;16.45;;
21492;SDS011;10908;50.690;4.400;2024-03-08T09:24:43;31.55;;;16.73;;
21492;SDS011;10908;50.690;4.400;2024-03-08T09:27:08;33.25;;;17.08;;
21492;SDS011;10908;50.690;4.400;2024-03-08T09:29:35;31.13;;;16.00;;
21492;SDS011;10908;50.690;4.400;2024-03-08T09:32:04;31.30;;;16.70;;
21492;SDS011;10908;50.690;4.400;2024-03-08T09:34:32;32.17;;;17.02;;
21492;SDS011;10908;50.690;4.400;2024-03-08T09:36:58;28.92;;;15.15;;
21492;SDS011;10908;50.690;4.400;2024-03-08T09:39:24;34.20;;;16.63;;
21492;SDS011;10908;50.690;4.400;2024-03-08T09:41:49;31.17;;;16.17;;
21492;SDS011;10908;50.690;4.400;2024-03-08T09:44:15;32.70;;;18.08;;
21492;SDS011;10908;50.690;4.400;2024-03-08T09:46:42;34.25;;;17.10;;
21492;SDS011;10908;50.690;4.400;2024-03-08T09:49:07;30.55;;;16.50;;
21492;SDS011;10908;50.690;4.400;2024-03-08T09:51:34;33.70;;;16.88;;
21492;SDS011;10908;50.690;4.400;2024-03-08T09:54:03;30.52;;;16.13;;
21492;SDS011;10908;50.690;4.400;2024-03-08T09:56:30;30.83;;;15.98;;
21492;SDS011;10908;50.690;4.400;2024-03-08T09:58:59;30.90;;;16.15;;
21492;SDS011;10908;50.690;4.400;2024-03-08T10:01:36;28.02;;;15.32;;
21492;SDS011;10908;50.690;4.400;2024-03-08T10:04:03;28.13;;;15.80;;
21492;SDS011;10908;50.690;4.400;2024-03-08T10:06:29;28.85;;;15.43;;
21492;SDS011;10908;50.690;4.400;2024-03-08T10:08:56;27.48;;;15.20;;
21492;SDS011;10908;50.690;4.400;2024-03-08T10:11:22;29.83;;;15.93;;
21492;SDS011;10908;50.690;4.400;2024-03-08T10:13:49;29.33;;;16.23;;
21492;SDS011;10908;50.690;4.400;2024-03-08T10:16:15;25.73;;;14.98;;
21492;SDS011;10908;50.690;4.400;2024-03-08T10:18:42;28.08;;;15.20;;
21492;SDS011;10908;50.690;4.400;2024-03-08T10:21:11;33.50;;;16.27;;
21492;SDS011;10908;50.690;4.400;2024-03-08T10:23:37;33.35;;;16.42;;
21492;SDS011;10908;50.690;4.400;2024-03-08T10:26:12;28.75;;;15.63;;
21492;SDS011;10908;50.690;4.400;2024-03-08T10:28:46;25.73;;;14.95;;
21492;SDS011;10908;50.690;4.400;2024-03-08T10:31:13;30.98;;;16.48;;
21492;SDS011;10908;50.690;4.400;2024-03-08T10:33:43;29.58;;;15.50;;
21492;SDS011;10908;50.690;4.400;2024-03-08T10:36:09;24.77;;;15.13;;
21492;SDS011;10908;50.690;4.400;2024-03-08T10:38:40;27.35;;;15.40;;
21492;SDS011;10908;50.690;4.400;2024-03-08T10:41:07;26.75;;;14.82;;
21492;SDS011;10908;50.690;4.400;2024-03-08T10:43:47;27.75;;;14.60;;
21492;SDS011;10908;50.690;4.400;2024-03-08T10:49:28;29.63;;;15.57;;
21492;SDS011;10908;50.690;4.400;2024-03-08T10:52:10;27.63;;;13.80;;
21492;SDS011;10908;50.690;4.400;2024-03-08T10:54:38;28.23;;;14.93;;
21492;SDS011;10908;50.690;4.400;2024-03-08T10:57:05;26.80;;;15.15;;
21492;SDS011;10908;50.690;4.400;2024-03-08T10:59:34;30.38;;;15.65;;
21492;SDS011;10908;50.690;4.400;2024-03-08T11:02:00;26.17;;;15.15;;
21492;SDS011;10908;50.690;4.400;2024-03-08T11:04:26;27.17;;;14.23;;
21492;SDS011;10908;50.690;4.400;2024-03-08T11:06:54;27.65;;;15.20;;
21492;SDS011;10908;50.690;4.400;2024-03-08T11:09:31;27.35;;;14.70;;
21492;SDS011;10908;50.690;4.400;2024-03-08T11:12:22;28.02;;;14.25;;
21492;SDS011;10908;50.690;4.400;2024-03-08T11:14:54;26.67;;;15.07;;
21492;SDS011;10908;50.690;4.400;2024-03-08T11:19:56;27.48;;;14.55;;
21492;SDS011;10908;50.690;4.400;2024-03-08T11:22:27;33.90;;;14.32;;
21492;SDS011;10908;50.690;4.400;2024-03-08T11:25:02;24.52;;;13.52;;
21492;SDS011;10908;50.690;4.400;2024-03-08T11:27:33;26.30;;;13.60;;
21492;SDS011;10908;50.690;4.400;2024-03-08T11:32:35;24.95;;;14.23;;
21492;SDS011;10908;50.690;4.400;2024-03-08T11:35:02;24.73;;;13.88;;
21492;SDS011;10908;50.690;4.400;2024-03-08T11:37:33;23.58;;;13.18;;
21492;SDS011;10908;50.690;4.400;2024-03-08T11:40:00;24.50;;;12.98;;
21492;SDS011;10908;50.690;4.400;2024-03-08T11:42:27;23.48;;;13.35;;
21492;SDS011;10908;50.690;4.400;2024-03-08T11:44:53;25.10;;;13.40;;
21492;SDS011;10908;50.690;4.400;2024-03-08T11:47:19;23.77;;;13.20;;
21492;SDS011;10908;50.690;4.400;2024-03-08T11:49:45;23.48;;;13.50;;
21492;SDS011;10908;50.690;4.400;2024-03-08T11:52:13;22.92;;;12.57;;
21492;SDS011;10908;50.690;4.400;2024-03-08T11:54:53;23.20;;;13.50;;
21492;SDS011;10908;50.690;4.400;2024-03-08T11:57:22;22.63;;;13.30;;
21492;SDS011;10908;50.690;4.400;2024-03-08T11:59:52;25.25;;;13.35;;
21492;SDS011;10908;50.690;4.400;2024-03-08T12:02:18;24.23;;;13.38;;
21492;SDS011;10908;50.690;4.400;2024-03-08T12:04:44;22.45;;;12.25;;
21492;SDS011;10908;50.690;4.400;2024-03-08T12:07:11;24.50;;;13.30;;
21492;SDS011;10908;50.690;4.400;2024-03-08T12:09:40;25.85;;;12.55;;
21492;SDS011;10908;50.690;4.400;2024-03-08T12:12:11;22.00;;;12.60;;
21492;SDS011;10908;50.690;4.400;2024-03-08T12:14:37;24.55;;;12.85;;
21492;SDS011;10908;50.690;4.400;2024-03-08T12:17:03;22.58;;;12.45;;
21492;SDS011;10908;50.690;4.400;2024-03-08T12:19:30;25.75;;;13.85;;
21492;SDS011;10908;50.690;4.400;2024-03-08T12:21:56;23.90;;;13.75;;
21492;SDS011;10908;50.690;4.400;2024-03-08T12:24:22;24.17;;;13.55;;
21492;SDS011;10908;50.690;4.400;2024-03-08T12:26:48;24.30;;;12.65;;
21492;SDS011;10908;50.690;4.400;2024-03-08T12:29:17;24.85;;;13.50;;
21492;SDS011;10908;50.690;4.400;2024-03-08T12:31:47;22.48;;;12.35;;
21492;SDS011;10908;50.690;4.400;2024-03-08T12:34:18;23.05;;;12.68;;
21492;SDS011;10908;50.690;4.400;2024-03-08T12:36:47;22.80;;;12.35;;
21492;SDS011;10908;50.690;4.400;2024-03-08T12:39:18;22.17;;;12.85;;
21492;SDS011;10908;50.690;4.400;2024-03-08T12:41:48;23.52;;;13.23;;
21492;SDS011;10908;50.690;4.400;2024-03-08T12:44:16;22.83;;;12.30;;
21492;SDS011;10908;50.690;4.400;2024-03-08T12:46:44;21.80;;;12.20;;
21492;SDS011;10908;50.690;4.400;2024-03-08T12:49:10;23.48;;;12.70;;
21492;SDS011;10908;50.690;4.400;2024-03-08T12:51:37;20.15;;;11.88;;
21492;SDS011;10908;50.690;4.400;2024-03-08T12:54:04;23.52;;;12.23;;
21492;SDS011;10908;50.690;4.400;2024-03-08T12:56:32;26.45;;;13.45;;
21492;SDS011;10908;50.690;4.400;2024-03-08T12:58:59;23.80;;;12.68;;
21492;SDS011;10908;50.690;4.400;2024-03-08T13:01:26;22.58;;;11.68;;
21492;SDS011;10908;50.690;4.400;2024-03-08T13:03:52;19.42;;;11.77;;
21492;SDS011;10908;50.690;4.400;2024-03-08T13:06:19;21.90;;;12.13;;
21492;SDS011;10908;50.690;4.400;2024-03-08T13:08:49;19.92;;;12.07;;
21492;SDS011;10908;50.690;4.400;2024-03-08T13:11:17;19.25;;;11.15;;
21492;SDS011;10908;50.690;4.400;2024-03-08T13:13:44;21.80;;;11.40;;
21492;SDS011;10908;50.690;4.400;2024-03-08T13:16:10;20.85;;;11.45;;
21492;SDS011;10908;50.690;4.400;2024-03-08T13:18:39;20.13;;;11.55;;
21492;SDS011;10908;50.690;4.400;2024-03-08T13:21:07;18.40;;;10.82;;
21492;SDS011;10908;50.690;4.400;2024-03-08T13:23:34;21.75;;;11.25;;
21492;SDS011;10908;50.690;4.400;2024-03-08T13:26:11;22.35;;;11.50;;
21492;SDS011;10908;50.690;4.400;2024-03-08T13:28:41;20.17;;;11.38;;
21492;SDS011;10908;50.690;4.400;2024-03-08T13:31:07;18.67;;;10.32;;
21492;SDS011;10908;50.690;4.400;2024-03-08T13:33:35;21.95;;;11.40;;
21492;SDS011;10908;50.690;4.400;2024-03-08T13:36:02;17.83;;;9.70;;
21492;SDS011;10908;50.690;4.400;2024-03-08T13:38:29;16.33;;;9.02;;
21492;SDS011;10908;50.690;4.400;2024-03-08T13:40:57;19.27;;;10.02;;
21492;SDS011;10908;50.690;4.400;2024-03-08T13:43:26;19.17;;;9.88;;
21492;SDS011;10908;50.690;4.400;2024-03-08T13:45:53;17.92;;;9.85;;
21492;SDS011;10908;50.690;4.400;2024-03-08T13:48:20;16.98;;;9.20;;
21492;SDS011;10908;50.690;4.400;2024-03-08T13:50:47;17.52;;;9.30;;
21492;SDS011;10908;50.690;4.400;2024-03-08T13:53:14;18.65;;;8.38;;
21492;SDS011;10908;50.690;4.400;2024-03-08T13:55:40;16.70;;;9.00;;
21492;SDS011;10908;50.690;4.400;2024-03-08T13:58:06;16.80;;;8.88;;
21492;SDS011;10908;50.690;4.400;2024-03-08T14:00:34;16.58;;;8.38;;
21492;SDS011;10908;50.690;4.400;2024-03-08T14:03:01;15.50;;;8.85;;
21492;SDS011;10908;50.690;4.400;2024-03-08T14:05:35;18.13;;;8.80;;
21492;SDS011;10908;50.690;4.400;2024-03-08T14:08:04;16.45;;;8.45;;
21492;SDS011;10908;50.690;4.400;2024-03-08T14:10:32;15.75;;;8.30;;
21492;SDS011;10908;50.690;4.400;2024-03-08T14:13:02;15.57;;;8.90;;
21492;SDS011;10908;50.690;4.400;2024-03-08T14:15:30;16.77;;;8.80;;
21492;SDS011;10908;50.690;4.400;2024-03-08T14:17:56;15.98;;;8.55;;
21492;SDS011;10908;50.690;4.400;2024-03-08T14:20:22;16.58;;;8.55;;
21492;SDS011;10908;50.690;4.400;2024-03-08T14:22:51;16.58;;;8.45;;
21492;SDS011;10908;50.690;4.400;2024-03-08T14:25:20;15.77;;;8.63;;
21492;SDS011;10908;50.690;4.400;2024-03-08T14:27:48;15.77;;;8.15;;
21492;SDS011;10908;50.690;4.400;2024-03-08T14:30:15;16.90;;;8.98;;
21492;SDS011;10908;50.690;4.400;2024-03-08T14:32:57;20.88;;;8.38;;